createdAt,value
2023-08-30T00:02:10.295Z,52.07
2023-08-30T00:04:38.526Z,52.60
2023-08-30T00:10:21.608Z,52.69
2023-08-30T00:12:54.925Z,52.35
2023-08-30T00:15:24.709Z,52.71
2023-08-30T00:17:54.514Z,52.71
2023-08-30T00:20:23.512Z,52.66
2023-08-30T00:22:54.160Z,52.83
2023-08-30T00:25:24.301Z,53.15
2023-08-30T00:27:52.832Z,53.18
2023-08-30T00:33:15.341Z,52.75
2023-08-30T00:35:43.633Z,53.32
2023-08-30T00:38:12.486Z,53.48
2023-08-30T00:40:41.677Z,53.43
2023-08-30T00:43:52.805Z,53.12
2023-08-30T00:46:21.183Z,53.82
2023-08-30T00:49:22.026Z,53.46
2023-08-30T00:52:09.088Z,53.56
2023-08-30T00:54:45.084Z,54.20
2023-08-30T01:00:35.123Z,53.73
2023-08-30T01:03:05.553Z,54.38
2023-08-30T01:06:39.276Z,53.97
2023-08-30T01:09:14.563Z,53.98
2023-08-30T01:11:48.723Z,54.26
2023-08-30T01:14:23.633Z,54.38
2023-08-30T01:16:51.779Z,54.90
2023-08-30T01:19:44.027Z,54.48
2023-08-30T01:22:19.184Z,54.62
2023-08-30T01:24:59.677Z,54.71
2023-08-30T01:27:33.138Z,55.05
2023-08-30T01:30:02.082Z,55.36
2023-08-30T01:32:31.449Z,55.39
2023-08-30T01:35:02.005Z,55.36
2023-08-30T01:38:51.265Z,54.80
2023-08-30T01:41:25.302Z,55.23
2023-08-30T01:43:56.058Z,55.42
2023-08-30T01:56:38.696Z,56.04
2023-08-30T01:59:32.978Z,56.07
2023-08-30T02:05:39.031Z,56.26
2023-08-30T02:08:29.851Z,55.95
2023-08-30T02:11:18.674Z,55.97
2023-08-30T02:16:33.629Z,56.73
2023-08-30T02:23:36.229Z,56.47
2023-08-30T02:26:23.673Z,57.12
2023-08-30T02:29:14.391Z,56.66
2023-08-30T02:31:44.087Z,57.20
2023-08-30T02:34:45.289Z,56.73
2023-08-30T02:37:13.409Z,57.06
2023-08-30T02:39:52.516Z,57.11
2023-08-30T02:42:20.631Z,57.24
2023-08-30T02:44:48.651Z,57.32
2023-08-30T02:47:18.118Z,57.27
2023-08-30T02:49:46.241Z,57.22
2023-08-30T02:52:31.333Z,57.16
2023-08-30T02:55:01.291Z,57.14
2023-08-30T02:57:41.339Z,56.80
2023-08-30T03:00:30.263Z,56.97
2023-08-30T03:03:16.283Z,56.64
2023-08-30T03:14:00.904Z,57.35
2023-08-30T03:17:21.999Z,56.93
2023-08-30T03:20:12.212Z,57.01
2023-08-30T03:22:48.215Z,57.03
2023-08-30T03:25:16.419Z,57.58
2023-08-30T03:27:46.717Z,57.48
2023-08-30T03:30:29.301Z,56.97
2023-08-30T03:33:28.689Z,57.14
2023-08-30T03:36:49.584Z,57.16
2023-08-30T03:40:14.616Z,57.24
2023-08-30T03:45:58.085Z,57.90
2023-08-30T03:48:26.493Z,57.97
2023-08-30T03:50:54.722Z,57.82
2023-08-30T03:53:27.249Z,57.65
2023-08-30T03:56:26.276Z,57.10
2023-08-30T03:59:07.706Z,56.95
2023-08-30T04:01:57.680Z,57.59
2023-08-30T04:04:50.508Z,57.55
2023-08-30T04:07:32.868Z,57.71
2023-08-30T04:10:50.782Z,57.26
2023-08-30T04:16:24.126Z,57.90
2023-08-30T04:25:37.077Z,57.88
2023-08-30T04:44:36.544Z,58.27
2023-08-30T04:47:04.947Z,58.35
2023-08-30T04:50:07.626Z,58.04
2023-08-30T04:53:46.085Z,58.07
2023-08-30T04:56:58.414Z,58.06
2023-08-30T04:59:57.966Z,58.36
2023-08-30T05:02:27.711Z,58.47
2023-08-30T05:05:06.642Z,58.54
2023-08-30T05:07:34.832Z,58.51
2023-08-30T05:10:04.296Z,58.56
2023-08-30T05:12:32.581Z,58.54
2023-08-30T05:15:01.219Z,58.54
2023-08-30T05:17:31.495Z,58.54
2023-08-30T05:20:00.487Z,58.47
2023-08-30T05:22:28.935Z,58.34
2023-08-30T05:24:57.253Z,58.34
2023-08-30T05:27:25.439Z,58.32
2023-08-30T05:29:53.862Z,58.29
2023-08-30T05:32:22.063Z,58.29
2023-08-30T05:35:13.651Z,58.13
2023-08-30T05:38:01.854Z,58.14
2023-08-30T05:40:48.519Z,58.15
2023-08-30T05:43:17.264Z,58.05
2023-08-30T05:45:45.579Z,58.05
2023-08-30T05:48:13.757Z,58.04
2023-08-30T05:50:43.838Z,57.82
2023-08-30T05:53:11.976Z,57.88
2023-08-30T05:55:40.210Z,57.74
2023-08-30T05:58:08.742Z,57.69
2023-08-30T06:00:37.125Z,57.64
2023-08-30T06:03:05.750Z,57.48
2023-08-30T06:05:33.953Z,57.45
2023-08-30T06:08:03.618Z,57.35
2023-08-30T06:10:31.880Z,57.32
2023-08-30T06:13:00.508Z,57.32
2023-08-30T06:15:28.899Z,57.21
2023-08-30T06:17:57.193Z,57.19
2023-08-30T06:20:25.397Z,57.04
2023-08-30T06:22:53.548Z,56.81
2023-08-30T06:25:23.022Z,56.31
2023-08-30T06:27:58.461Z,55.64
2023-08-30T06:30:26.855Z,55.44
2023-08-30T06:32:55.047Z,55.26
2023-08-30T06:35:23.184Z,55.03
2023-08-30T06:37:51.378Z,55.02
2023-08-30T06:40:19.743Z,55.00
2023-08-30T06:42:49.184Z,54.71
2023-08-30T06:45:18.475Z,54.33
2023-08-30T06:47:46.635Z,54.16
2023-08-30T06:50:14.784Z,54.12
2023-08-30T06:52:43.010Z,54.22
2023-08-30T06:55:11.451Z,54.26
2023-08-30T06:57:39.560Z,54.33
2023-08-30T07:00:10.553Z,53.78
2023-08-30T07:02:40.150Z,53.82
2023-08-30T07:05:09.073Z,53.78
2023-08-30T07:07:37.177Z,53.39
2023-08-30T07:10:05.837Z,53.10
2023-08-30T07:12:33.986Z,52.91
2023-08-30T07:15:02.118Z,52.80
2023-08-30T07:17:40.762Z,52.86
2023-08-30T07:20:19.689Z,52.73
2023-08-30T07:22:47.839Z,52.46
2023-08-30T07:25:15.977Z,52.23
2023-08-30T07:27:44.176Z,51.99
2023-08-30T07:30:13.044Z,52.07
2023-08-30T07:32:43.467Z,51.72
2023-08-30T07:35:14.732Z,51.74
2023-08-30T07:37:43.429Z,51.56
2023-08-30T07:40:12.598Z,51.09
2023-08-30T07:42:40.793Z,50.93
2023-08-30T07:45:10.220Z,50.85
2023-08-30T07:47:38.341Z,50.76
2023-08-30T07:50:09.922Z,50.93
2023-08-30T07:52:46.011Z,50.85
2023-08-30T07:55:16.149Z,50.88
2023-08-30T07:57:44.301Z,50.76
2023-08-30T08:00:13.660Z,50.55
2023-08-30T08:02:42.639Z,50.60
2023-08-30T08:05:12.283Z,50.85
2023-08-30T08:07:41.697Z,50.40
2023-08-30T08:10:10.894Z,50.43
2023-08-30T08:12:39.322Z,50.51
2023-08-30T08:15:08.604Z,50.36
2023-08-30T08:17:36.722Z,50.39
2023-08-30T08:20:06.895Z,50.37
2023-08-30T08:22:36.355Z,50.02
2023-08-30T08:25:04.925Z,49.86
2023-08-30T08:27:33.077Z,49.99
2023-08-30T08:30:01.177Z,49.98
2023-08-30T08:32:29.329Z,49.78
2023-08-30T08:34:57.407Z,49.44
2023-08-30T08:37:25.524Z,49.26
2023-08-30T08:39:55.042Z,48.91
2023-08-30T08:42:24.016Z,49.13
2023-08-30T08:44:53.916Z,48.90
2023-08-30T08:47:23.309Z,48.85
2023-08-30T08:49:52.794Z,48.21
2023-08-30T08:52:30.031Z,48.27
2023-08-30T08:55:04.167Z,48.49
2023-08-30T08:57:34.017Z,47.78
2023-08-30T09:00:02.613Z,48.08
2023-08-30T09:02:31.142Z,47.86
2023-08-30T09:05:00.564Z,47.51
2023-08-30T09:07:31.345Z,47.55
2023-08-30T09:10:00.212Z,47.39
2023-08-30T09:12:29.990Z,46.70
2023-08-30T09:14:58.886Z,45.76
2023-08-30T09:17:38.015Z,45.33
2023-08-30T09:20:10.729Z,44.68
2023-08-30T09:22:40.031Z,43.84
2023-08-30T09:25:10.315Z,43.53
2023-08-30T09:27:42.662Z,42.99
2023-08-30T09:30:12.339Z,42.75
2023-08-30T09:32:44.201Z,42.72
2023-08-30T09:35:12.838Z,42.48
2023-08-30T09:37:41.131Z,42.81
2023-08-30T09:40:10.701Z,42.52
2023-08-30T09:42:47.192Z,41.99
2023-08-30T09:45:23.989Z,42.82
2023-08-30T09:47:52.347Z,42.26
2023-08-30T09:50:22.170Z,41.80
2023-08-30T09:52:53.493Z,42.08
2023-08-30T09:55:23.803Z,42.32
2023-08-30T09:57:54.134Z,42.35
2023-08-30T10:00:22.807Z,41.99
2023-08-30T10:03:16.633Z,41.04
2023-08-30T10:05:41.556Z,42.24
2023-08-30T10:08:10.476Z,41.23
2023-08-30T10:10:40.104Z,41.45
2023-08-30T10:13:11.056Z,40.40
2023-08-30T10:15:45.402Z,39.58
2023-08-30T10:18:17.730Z,38.97
2023-08-30T10:20:46.897Z,38.96
2023-08-30T10:23:15.992Z,38.85
2023-08-30T10:25:45.225Z,38.59
2023-08-30T10:28:15.141Z,39.20
2023-08-30T10:30:43.850Z,39.54
2023-08-30T10:33:15.872Z,38.96
2023-08-30T10:35:52.607Z,38.82
2023-08-30T10:38:29.161Z,38.21
2023-08-30T10:40:58.095Z,38.65
2023-08-30T10:43:37.909Z,38.66
2023-08-30T10:46:09.302Z,39.10
2023-08-30T10:48:39.396Z,39.21
2023-08-30T10:51:23.312Z,39.01
2023-08-30T10:53:58.833Z,39.37
2023-08-30T10:56:32.148Z,39.78
2023-08-30T10:59:04.673Z,40.59
2023-08-30T11:01:33.234Z,40.97
2023-08-30T11:04:13.486Z,40.81
2023-08-30T11:06:44.714Z,40.94
2023-08-30T11:09:15.458Z,40.83
2023-08-30T11:11:44.282Z,40.27
2023-08-30T11:14:14.289Z,40.65
2023-08-30T11:16:42.877Z,40.23
2023-08-30T11:19:13.057Z,40.48
2023-08-30T11:21:42.881Z,40.30
2023-08-30T11:24:12.448Z,40.65
2023-08-30T11:26:41.039Z,40.68
2023-08-30T11:29:10.329Z,40.30
2023-08-30T11:31:40.332Z,40.89
2023-08-30T11:34:08.737Z,41.52
2023-08-30T11:36:38.837Z,42.02
2023-08-30T11:39:07.709Z,42.62
2023-08-30T11:41:36.158Z,43.03
2023-08-30T11:44:05.829Z,43.20
2023-08-30T11:46:34.155Z,43.41
2023-08-30T11:49:04.306Z,43.46
2023-08-30T11:51:34.002Z,43.87
2023-08-30T11:54:04.516Z,44.37
2023-08-30T11:56:32.962Z,44.64
2023-08-30T11:59:01.322Z,44.71
2023-08-30T12:01:29.741Z,44.78
2023-08-30T12:03:58.606Z,45.05
2023-08-30T12:06:28.600Z,45.16
2023-08-30T12:09:00.726Z,45.08
2023-08-30T12:11:30.384Z,44.82
2023-08-30T12:14:04.475Z,44.90
2023-08-30T12:16:33.076Z,45.41
2023-08-30T12:19:10.379Z,45.57
2023-08-30T12:21:44.332Z,45.41
2023-08-30T12:24:13.073Z,45.42
2023-08-30T12:26:41.423Z,44.84
2023-08-30T12:29:09.777Z,44.87
2023-08-30T12:31:38.798Z,45.14
2023-08-30T12:34:07.232Z,45.20
2023-08-30T12:36:35.564Z,44.56
2023-08-30T12:39:06.550Z,44.76
2023-08-30T12:41:34.929Z,44.26
2023-08-30T12:44:05.414Z,44.09
2023-08-30T12:46:33.771Z,43.74
2023-08-30T12:49:02.126Z,43.89
2023-08-30T12:51:31.698Z,43.86
2023-08-30T12:54:00.073Z,44.32
2023-08-30T12:56:29.774Z,44.07
2023-08-30T12:58:58.333Z,44.54
2023-08-30T13:01:26.680Z,44.99
2023-08-30T13:03:54.994Z,45.87
2023-08-30T13:06:23.396Z,47.32
2023-08-30T13:08:51.728Z,49.26
2023-08-30T13:11:20.083Z,50.33
2023-08-30T13:13:49.799Z,51.07
2023-08-30T13:16:18.112Z,51.73
2023-08-30T13:18:46.397Z,51.82
2023-08-30T13:21:15.807Z,51.80
2023-08-30T13:23:45.674Z,52.25
2023-08-30T13:26:14.034Z,52.65
2023-08-30T13:28:42.323Z,52.98
2023-08-30T13:31:12.118Z,53.48
2023-08-30T13:33:40.951Z,53.75
2023-08-30T13:36:09.402Z,53.99
2023-08-30T13:38:37.721Z,54.11
2023-08-30T13:41:06.202Z,54.42
2023-08-30T13:43:34.560Z,54.33
2023-08-30T13:46:02.982Z,54.46
2023-08-30T13:48:32.755Z,54.62
2023-08-30T13:51:01.075Z,54.54
2023-08-30T13:53:29.434Z,53.88
2023-08-30T13:55:57.806Z,53.74
2023-08-30T13:58:26.108Z,54.17
2023-08-30T14:00:54.462Z,53.87
2023-08-30T14:03:23.022Z,53.91
2023-08-30T14:05:52.889Z,53.98
2023-08-30T14:08:21.277Z,54.19
2023-08-30T14:10:49.666Z,54.23
2023-08-30T14:13:18.063Z,54.34
2023-08-30T14:15:46.461Z,54.71
2023-08-30T14:18:15.225Z,54.13
2023-08-30T14:20:44.497Z,54.12
2023-08-30T14:23:15.110Z,54.10
2023-08-30T14:25:44.757Z,54.11
2023-08-30T14:28:13.084Z,54.07
2023-08-30T14:30:41.687Z,54.24
2023-08-30T14:33:12.059Z,54.17
2023-08-30T14:35:44.066Z,53.81
2023-08-30T14:38:13.934Z,54.15
2023-08-30T14:40:42.950Z,54.16
2023-08-30T14:43:11.264Z,54.34
2023-08-30T14:45:39.579Z,54.38
2023-08-30T14:48:09.940Z,54.20
2023-08-30T14:50:38.610Z,54.48
2023-08-30T14:53:07.641Z,54.62
2023-08-30T14:55:37.423Z,54.74
2023-08-30T14:58:06.098Z,54.87
2023-08-30T15:00:34.531Z,54.99
2023-08-30T15:03:03.016Z,55.04
2023-08-30T15:05:31.406Z,54.91
2023-08-30T15:08:00.864Z,55.12
2023-08-30T15:10:29.295Z,55.40
2023-08-30T15:12:59.621Z,55.60
2023-08-30T15:15:27.908Z,55.58
2023-08-30T15:17:56.315Z,55.61
2023-08-30T15:20:24.669Z,55.76
2023-08-30T15:22:53.732Z,55.71
2023-08-30T15:25:22.450Z,55.84
2023-08-30T15:27:50.765Z,55.87
2023-08-30T15:30:20.750Z,55.98
2023-08-30T15:32:49.406Z,55.95
2023-08-30T15:35:17.974Z,56.03
2023-08-30T15:37:46.292Z,55.97
2023-08-30T15:40:14.628Z,55.88
2023-08-30T15:42:42.982Z,55.97
2023-08-30T15:45:11.617Z,55.99
2023-08-30T15:47:41.463Z,56.07
2023-08-30T15:50:10.345Z,55.36
2023-08-30T15:52:38.731Z,55.99
2023-08-30T15:55:08.205Z,56.39
2023-08-30T15:57:36.564Z,56.67
2023-08-30T16:00:06.247Z,56.80
2023-08-30T16:02:34.852Z,56.90
2023-08-30T16:05:04.731Z,56.95
2023-08-30T16:07:33.114Z,56.94
2023-08-30T16:10:02.880Z,57.06
2023-08-30T16:12:31.452Z,57.10
2023-08-30T16:14:59.861Z,57.00
2023-08-30T16:17:28.397Z,56.88
2023-08-30T16:19:58.213Z,57.06
2023-08-30T16:22:28.363Z,56.99
2023-08-30T16:24:56.673Z,56.87
2023-08-30T16:27:24.945Z,56.83
2023-08-30T16:29:53.324Z,56.89
2023-08-30T16:32:21.774Z,56.91
2023-08-30T16:34:50.774Z,56.87
2023-08-30T16:37:19.569Z,56.78
2023-08-30T16:39:49.717Z,56.65
2023-08-30T16:42:18.055Z,56.82
2023-08-30T16:44:46.770Z,57.00
2023-08-30T16:47:15.196Z,57.03
2023-08-30T16:49:43.583Z,57.06
2023-08-30T16:52:12.153Z,57.11
2023-08-30T16:54:40.500Z,57.02
2023-08-30T16:57:10.361Z,57.01
2023-08-30T16:59:38.805Z,57.00
2023-08-30T17:02:07.535Z,56.97
2023-08-30T17:04:37.834Z,57.06
2023-08-30T17:07:06.384Z,57.06
2023-08-30T17:09:35.869Z,57.00
2023-08-30T17:12:06.120Z,57.16
2023-08-30T17:14:36.012Z,57.19
2023-08-30T17:17:04.658Z,57.35
2023-08-30T17:19:33.034Z,57.38
2023-08-30T17:22:01.447Z,57.40
2023-08-30T17:24:30.700Z,57.23
2023-08-30T17:27:00.518Z,57.27
2023-08-30T17:29:29.148Z,57.39
2023-08-30T17:31:58.883Z,57.32
2023-08-30T17:34:27.378Z,57.36
2023-08-30T17:36:58.564Z,57.43
2023-08-30T17:39:29.435Z,57.50
2023-08-30T17:41:57.932Z,57.45
2023-08-30T17:44:26.290Z,57.31
2023-08-30T17:46:54.995Z,57.07
2023-08-30T17:49:24.793Z,56.90
2023-08-30T17:51:54.097Z,56.87
2023-08-30T17:54:22.544Z,56.81
2023-08-30T17:56:50.831Z,56.78
2023-08-30T17:59:19.133Z,56.80
2023-08-30T18:01:48.809Z,56.61
2023-08-30T18:04:17.154Z,56.49
2023-08-30T18:06:46.925Z,56.31
2023-08-30T18:09:16.305Z,56.32
2023-08-30T18:11:44.826Z,56.37
2023-08-30T18:14:13.249Z,56.49
2023-08-30T18:16:41.573Z,56.70
2023-08-30T18:19:10.076Z,56.81
2023-08-30T18:21:38.397Z,56.75
2023-08-30T18:24:18.991Z,56.21
2023-08-30T18:26:48.270Z,56.95
2023-08-30T18:29:16.864Z,57.07
2023-08-30T18:31:45.304Z,57.26
2023-08-30T18:34:13.644Z,57.40
2023-08-30T18:36:42.208Z,57.48
2023-08-30T18:39:10.597Z,57.51
2023-08-30T18:41:40.562Z,57.50
2023-08-30T18:44:09.014Z,57.58
2023-08-30T18:46:37.376Z,57.74
2023-08-30T18:49:05.786Z,57.96
2023-08-30T18:51:34.106Z,58.16
2023-08-30T18:54:05.689Z,58.20
2023-08-30T18:56:34.644Z,58.32
2023-08-30T18:59:05.509Z,58.32
2023-08-30T19:01:34.544Z,58.39
2023-08-30T19:04:04.021Z,58.49
2023-08-30T19:06:32.407Z,58.46
2023-08-30T19:09:01.266Z,58.47
2023-08-30T19:11:29.645Z,58.50
2023-08-30T19:13:58.037Z,58.62
2023-08-30T19:16:30.622Z,58.62
2023-08-30T19:18:59.036Z,58.78
2023-08-30T19:21:27.336Z,58.93
2023-08-30T19:23:57.362Z,59.03
2023-08-30T19:26:30.029Z,59.15
2023-08-30T19:28:58.610Z,59.28
2023-08-30T19:31:28.594Z,59.24
2023-08-30T19:33:56.940Z,59.32
2023-08-30T19:36:27.926Z,59.35
2023-08-30T19:38:57.463Z,59.36
2023-08-30T19:41:29.164Z,59.03
2023-08-30T19:43:57.486Z,59.28
2023-08-30T19:46:25.873Z,59.36
2023-08-30T19:48:55.970Z,59.38
2023-08-30T19:51:25.873Z,59.48
2023-08-30T19:53:55.755Z,59.57
2023-08-30T19:56:24.424Z,59.67
2023-08-30T19:58:52.777Z,59.73
2023-08-30T20:01:21.682Z,59.86
2023-08-30T20:03:52.171Z,59.96
2023-08-30T20:06:22.363Z,59.97
2023-08-30T20:08:50.792Z,60.06
2023-08-30T20:11:19.104Z,60.04
2023-08-30T20:13:47.593Z,59.91
2023-08-30T20:16:16.507Z,59.94
2023-08-30T20:18:44.975Z,59.93
2023-08-30T20:21:16.293Z,59.56
2023-08-30T20:23:46.377Z,59.56
2023-08-30T20:26:15.007Z,59.49
2023-08-30T20:28:47.089Z,59.44
2023-08-30T20:31:16.121Z,59.34
2023-08-30T20:33:44.915Z,59.27
2023-08-30T20:36:13.826Z,59.16
2023-08-30T20:38:43.195Z,59.20
2023-08-30T20:41:13.377Z,59.12
2023-08-30T20:43:41.712Z,59.12
2023-08-30T20:46:11.976Z,58.96
2023-08-30T20:48:40.481Z,58.83
2023-08-30T20:51:08.842Z,58.77
2023-08-30T20:53:38.632Z,58.66
2023-08-30T20:56:09.974Z,58.41
2023-08-30T20:58:42.616Z,58.41
2023-08-30T21:01:10.999Z,58.70
2023-08-30T21:03:39.855Z,58.69
2023-08-30T21:06:08.927Z,58.80
2023-08-30T21:08:37.791Z,58.74
2023-08-30T21:11:10.135Z,58.39
2023-08-30T21:13:38.558Z,58.75
2023-08-30T21:16:08.544Z,58.82
2023-08-30T21:18:37.024Z,58.90
2023-08-30T21:21:05.206Z,58.74
2023-08-30T21:23:33.301Z,58.66
2023-08-30T21:26:01.354Z,58.51
2023-08-30T21:28:33.273Z,58.47
2023-08-30T21:31:01.742Z,58.46
2023-08-30T21:33:31.259Z,58.29
2023-08-30T21:36:00.572Z,58.22
2023-08-30T21:38:28.666Z,58.13
2023-08-30T21:40:56.699Z,58.09
2023-08-30T21:43:24.753Z,58.03
2023-08-30T21:45:52.882Z,58.04
2023-08-30T21:48:21.552Z,57.93
2023-08-30T21:50:51.906Z,57.70
2023-08-30T21:53:19.952Z,57.85
2023-08-30T21:55:48.223Z,57.92
2023-08-30T21:58:16.255Z,58.00
2023-08-30T22:00:44.436Z,58.09
2023-08-30T22:03:12.738Z,58.16
2023-08-30T22:05:40.984Z,58.15
2023-08-30T22:08:10.402Z,58.09
2023-08-30T22:10:39.866Z,58.12
2023-08-30T22:13:09.338Z,58.11
2023-08-30T22:15:37.605Z,58.13
2023-08-30T22:18:06.281Z,58.19
2023-08-30T22:20:34.342Z,58.23
2023-08-30T22:23:04.769Z,58.16
2023-08-30T22:25:34.290Z,58.00
2023-08-30T22:28:03.781Z,57.98
2023-08-30T22:30:32.222Z,57.97
2023-08-30T22:33:00.499Z,57.95
2023-08-30T22:35:28.610Z,58.01
2023-08-30T22:37:56.216Z,58.06
2023-08-30T22:40:24.238Z,58.18
2023-08-30T22:42:53.804Z,58.25
2023-08-30T22:45:21.846Z,58.32
2023-08-30T22:47:50.308Z,58.29
2023-08-30T22:50:18.620Z,58.35
2023-08-30T22:52:46.656Z,58.38
2023-08-30T22:55:15.273Z,58.32
2023-08-30T22:57:43.323Z,58.38
2023-08-30T23:00:14.344Z,58.39
2023-08-30T23:02:42.463Z,58.48
2023-08-30T23:05:11.330Z,58.46
2023-08-30T23:07:39.417Z,58.51
2023-08-30T23:10:10.164Z,58.41
2023-08-30T23:12:39.220Z,58.67
2023-08-30T23:15:08.423Z,58.76
2023-08-30T23:17:45.817Z,58.13
2023-08-30T23:20:14.975Z,58.56
2023-08-30T23:22:43.998Z,58.58
2023-08-30T23:25:12.471Z,58.66
2023-08-30T23:27:41.636Z,58.68
2023-08-30T23:30:10.214Z,58.74
2023-08-30T23:32:38.295Z,58.76
2023-08-30T23:35:07.636Z,58.69
2023-08-30T23:37:36.149Z,58.84
2023-08-30T23:40:08.324Z,58.89
2023-08-30T23:42:36.449Z,58.87
2023-08-30T23:45:06.220Z,58.87
2023-08-30T23:47:34.690Z,58.97
2023-08-30T23:50:03.941Z,58.87
2023-08-30T23:52:33.373Z,58.93
2023-08-30T23:55:01.809Z,58.99
2023-08-30T23:57:29.896Z,58.93
2023-08-30T23:59:58.081Z,58.93
